createdAt,value
2022-09-21T00:01:55.377Z,1.20
2022-09-21T00:04:24.776Z,0.80
2022-09-21T00:06:52.805Z,0.77
2022-09-21T00:09:20.779Z,1.03
2022-09-21T00:11:48.723Z,0.90
2022-09-21T00:14:17.074Z,1.10
2022-09-21T00:16:45.169Z,0.93
2022-09-21T00:19:13.453Z,0.80
2022-09-21T00:21:42.787Z,1.00
2022-09-21T00:24:10.966Z,0.73
2022-09-21T00:26:39.078Z,1.00
2022-09-21T00:29:07.099Z,1.10
2022-09-21T00:31:35.307Z,0.93
2022-09-21T00:34:03.721Z,1.00
2022-09-21T00:36:31.879Z,1.00
2022-09-21T00:39:03.115Z,1.30
2022-09-21T00:41:33.211Z,1.37
2022-09-21T00:44:22.704Z,1.30
2022-09-21T00:46:52.467Z,1.20
2022-09-21T00:49:21.880Z,1.00
2022-09-21T00:51:51.175Z,1.00
2022-09-21T00:54:27.179Z,0.70
2022-09-21T00:56:56.694Z,1.10
2022-09-21T00:59:29.950Z,1.17
2022-09-21T01:01:59.641Z,1.40
2022-09-21T01:04:29.273Z,1.00
2022-09-21T01:06:58.769Z,0.80
2022-09-21T01:09:29.038Z,1.30
2022-09-21T01:12:11.526Z,1.30
2022-09-21T01:15:03.807Z,1.60
2022-09-21T01:17:41.795Z,1.37
2022-09-21T01:20:37.366Z,1.07
2022-09-21T01:23:37.011Z,1.27
2022-09-21T01:26:16.533Z,1.20
2022-09-21T01:29:11.009Z,1.10
2022-09-21T01:31:43.382Z,1.10
2022-09-21T01:34:18.386Z,1.10
2022-09-21T01:36:50.137Z,1.60
2022-09-21T01:39:20.997Z,1.10
2022-09-21T01:41:51.913Z,1.33
2022-09-21T01:44:24.393Z,1.00
2022-09-21T01:46:54.200Z,0.97
2022-09-21T01:49:26.931Z,0.90
2022-09-21T01:51:59.419Z,1.20
2022-09-21T01:54:35.144Z,0.90
2022-09-21T01:57:09.221Z,1.10
2022-09-21T01:59:47.991Z,0.90
2022-09-21T02:02:20.545Z,0.90
2022-09-21T02:04:48.797Z,0.90
2022-09-21T02:07:18.505Z,0.90
2022-09-21T02:09:48.117Z,1.20
2022-09-21T02:12:19.104Z,1.07
2022-09-21T02:14:49.709Z,1.13
2022-09-21T02:17:32.329Z,0.90
2022-09-21T02:20:08.595Z,1.10
2022-09-21T02:22:43.480Z,0.70
2022-09-21T02:25:16.571Z,0.80
2022-09-21T02:27:54.655Z,1.07
2022-09-21T02:30:25.969Z,1.00
2022-09-21T02:33:01.679Z,0.87
2022-09-21T02:35:36.228Z,1.10
2022-09-21T02:38:10.595Z,0.80
2022-09-21T02:40:44.665Z,1.10
2022-09-21T02:43:21.607Z,0.97
2022-09-21T02:45:55.386Z,0.80
2022-09-21T02:48:30.470Z,0.97
2022-09-21T02:51:00.706Z,1.00
2022-09-21T02:53:32.020Z,0.70
2022-09-21T02:56:03.907Z,1.07
2022-09-21T02:58:35.490Z,0.97
2022-09-21T03:01:08.867Z,0.80
2022-09-21T03:03:37.167Z,0.80
2022-09-21T03:06:05.408Z,0.80
2022-09-21T03:08:33.383Z,0.90
2022-09-21T03:11:01.380Z,0.80
2022-09-21T03:13:29.373Z,0.90
2022-09-21T03:16:01.771Z,0.80
2022-09-21T03:18:31.730Z,0.77
2022-09-21T03:21:00.273Z,0.80
2022-09-21T03:23:28.284Z,1.00
2022-09-21T03:25:56.423Z,1.10
2022-09-21T03:28:24.938Z,0.60
2022-09-21T03:30:53.662Z,1.00
2022-09-21T03:33:22.057Z,0.73
2022-09-21T03:35:51.638Z,0.70
2022-09-21T03:38:20.281Z,0.70
2022-09-21T03:40:49.075Z,0.97
2022-09-21T03:43:17.654Z,0.83
2022-09-21T03:45:46.048Z,0.97
2022-09-21T03:48:15.467Z,0.70
2022-09-21T03:50:43.807Z,0.87
2022-09-21T03:53:13.254Z,0.63
2022-09-21T03:55:41.285Z,1.10
2022-09-21T03:58:09.334Z,0.70
2022-09-21T04:00:38.152Z,0.90
2022-09-21T04:03:06.215Z,0.80
2022-09-21T04:05:34.157Z,0.60
2022-09-21T04:08:03.043Z,0.80
2022-09-21T04:10:33.791Z,1.03
2022-09-21T04:13:03.433Z,0.87
2022-09-21T04:15:32.307Z,1.03
2022-09-21T04:18:00.356Z,0.87
2022-09-21T04:20:28.804Z,0.80
2022-09-21T04:22:56.808Z,1.10
2022-09-21T04:25:24.875Z,18.60
2022-09-21T04:27:54.503Z,9.70
2022-09-21T04:30:22.483Z,5.37
2022-09-21T04:32:50.476Z,9.73
2022-09-21T04:35:18.614Z,9.17
2022-09-21T04:37:46.644Z,6.07
2022-09-21T04:40:14.669Z,7.20
2022-09-21T04:42:42.658Z,5.40
2022-09-21T04:45:12.608Z,4.87
2022-09-21T04:47:40.596Z,3.90
2022-09-21T04:50:09.626Z,3.63
2022-09-21T04:52:37.629Z,3.63
2022-09-21T04:55:06.332Z,3.70
2022-09-21T04:57:35.676Z,3.17
2022-09-21T05:00:05.064Z,2.63
2022-09-21T05:02:34.469Z,2.17
2022-09-21T05:05:02.471Z,2.10
2022-09-21T05:07:30.428Z,1.60
2022-09-21T05:10:03.329Z,1.70
2022-09-21T05:12:31.787Z,1.40
2022-09-21T05:14:59.812Z,1.07
2022-09-21T05:17:27.802Z,1.53
2022-09-21T05:19:57.218Z,1.33
2022-09-21T05:22:25.276Z,2.67
2022-09-21T05:24:53.268Z,4.60
2022-09-21T05:27:21.290Z,2.37
2022-09-21T05:29:49.857Z,3.17
2022-09-21T05:32:25.604Z,3.03
2022-09-21T05:35:08.610Z,2.10
2022-09-21T05:37:49.330Z,2.03
2022-09-21T05:40:18.059Z,1.67
2022-09-21T05:42:46.642Z,1.93
2022-09-21T05:45:16.590Z,1.43
2022-09-21T05:47:59.302Z,2.47
2022-09-21T05:50:38.894Z,2.20
2022-09-21T05:53:19.273Z,2.20
2022-09-21T05:55:56.252Z,1.93
2022-09-21T05:58:30.536Z,1.90
2022-09-21T06:01:21.785Z,1.90
2022-09-21T06:03:50.361Z,1.97
2022-09-21T06:06:21.607Z,1.70
2022-09-21T06:08:49.586Z,1.73
2022-09-21T06:11:17.859Z,2.00
2022-09-21T06:13:45.846Z,2.30
2022-09-21T06:16:14.121Z,2.00
2022-09-21T06:18:43.467Z,2.20
2022-09-21T06:21:11.672Z,2.47
2022-09-21T06:23:40.987Z,2.40
2022-09-21T06:26:08.945Z,2.33
2022-09-21T06:28:36.915Z,2.40
2022-09-21T06:31:05.033Z,2.70
2022-09-21T06:33:35.527Z,2.13
2022-09-21T06:36:03.882Z,2.77
2022-09-21T06:38:31.955Z,2.63
2022-09-21T06:41:05.397Z,2.87
2022-09-21T06:43:33.713Z,2.30
2022-09-21T06:46:02.917Z,3.17
2022-09-21T06:48:32.148Z,2.93
2022-09-21T06:51:00.623Z,2.63
2022-09-21T06:53:29.666Z,3.03
2022-09-21T06:56:04.039Z,3.20
2022-09-21T06:58:34.208Z,2.83
2022-09-21T07:01:10.152Z,2.37
2022-09-21T07:03:39.338Z,2.40
2022-09-21T07:06:08.402Z,2.17
2022-09-21T07:11:27.434Z,2.47
2022-09-21T07:13:56.029Z,2.40
2022-09-21T07:16:24.269Z,2.40
2022-09-21T07:18:52.298Z,2.27
2022-09-21T07:21:20.249Z,2.57
2022-09-21T07:23:48.207Z,2.30
2022-09-21T07:26:16.694Z,2.27
2022-09-21T07:28:46.030Z,2.67
2022-09-21T07:31:15.928Z,3.33
2022-09-21T07:33:46.511Z,2.13
2022-09-21T07:36:14.507Z,1.90
2022-09-21T07:38:44.080Z,1.70
2022-09-21T07:41:13.845Z,2.00
2022-09-21T07:43:42.180Z,2.50
2022-09-21T07:46:14.499Z,1.50
2022-09-21T07:48:42.545Z,1.47
2022-09-21T07:51:12.844Z,1.30
2022-09-21T07:53:42.815Z,1.20
2022-09-21T07:56:12.674Z,1.63
2022-09-21T07:58:58.880Z,1.10
2022-09-21T08:01:29.028Z,1.03
2022-09-21T08:03:58.698Z,1.27
2022-09-21T08:06:28.402Z,1.10
2022-09-21T08:08:57.979Z,0.90
2022-09-21T08:11:27.860Z,1.23
2022-09-21T08:13:57.639Z,1.30
2022-09-21T08:16:26.669Z,1.00
2022-09-21T08:18:56.096Z,1.20
2022-09-21T08:21:24.271Z,0.93
2022-09-21T08:23:52.316Z,1.10
2022-09-21T08:26:21.280Z,0.90
2022-09-21T08:28:51.973Z,1.00
2022-09-21T08:31:21.483Z,1.10
2022-09-21T08:33:50.220Z,0.80
2022-09-21T08:36:20.504Z,0.90
2022-09-21T08:38:49.171Z,1.10
2022-09-21T08:41:20.794Z,1.30
2022-09-21T08:43:53.187Z,1.07
2022-09-21T08:46:24.658Z,1.10
2022-09-21T08:48:57.361Z,1.10
2022-09-21T08:51:30.616Z,1.20
2022-09-21T08:54:04.969Z,1.50
2022-09-21T08:56:47.432Z,1.03
2022-09-21T08:59:21.057Z,1.30
2022-09-21T09:01:58.358Z,1.20
2022-09-21T09:04:50.600Z,1.23
2022-09-21T09:07:36.527Z,1.40
2022-09-21T09:10:13.242Z,1.50
2022-09-21T09:12:50.701Z,0.93
2022-09-21T09:15:53.653Z,1.20
2022-09-21T09:18:28.459Z,1.20
2022-09-21T09:20:58.830Z,1.57
2022-09-21T09:23:33.837Z,1.20
2022-09-21T09:26:08.941Z,1.07
2022-09-21T09:28:43.697Z,1.20
2022-09-21T09:31:15.859Z,1.33
2022-09-21T09:33:52.914Z,1.00
2022-09-21T09:36:40.137Z,1.10
2022-09-21T09:39:14.212Z,0.97
2022-09-21T09:42:03.516Z,0.93
2022-09-21T09:45:03.972Z,1.10
2022-09-21T09:47:46.024Z,0.90
2022-09-21T09:50:21.726Z,0.80
2022-09-21T09:52:54.335Z,1.33
2022-09-21T09:55:26.826Z,1.30
2022-09-21T09:57:57.075Z,1.00
2022-09-21T10:00:25.074Z,1.00
2022-09-21T10:02:55.406Z,1.13
2022-09-21T10:05:25.620Z,1.10
2022-09-21T10:07:54.172Z,1.00
2022-09-21T10:10:32.618Z,1.20
2022-09-21T10:13:13.013Z,1.10
2022-09-21T10:15:49.599Z,1.00
2022-09-21T10:18:22.298Z,0.97
2022-09-21T10:20:56.672Z,1.10
2022-09-21T10:23:25.979Z,1.20
2022-09-21T10:26:01.834Z,1.47
2022-09-21T10:28:30.705Z,1.20
2022-09-21T10:31:21.561Z,1.20
2022-09-21T10:33:53.707Z,1.00
2022-09-21T10:36:34.066Z,1.20
2022-09-21T10:39:29.875Z,1.20
2022-09-21T10:42:08.421Z,1.30
2022-09-21T10:44:40.853Z,1.40
2022-09-21T10:47:22.517Z,1.27
2022-09-21T10:49:53.907Z,1.20
2022-09-21T10:52:24.560Z,1.00
2022-09-21T10:54:55.597Z,1.00
2022-09-21T10:57:27.642Z,0.40
2022-09-21T10:59:57.312Z,0.70
2022-09-21T11:02:46.557Z,0.73
2022-09-21T11:05:18.022Z,0.53
2022-09-21T11:07:53.202Z,0.80
2022-09-21T11:10:33.991Z,0.50
2022-09-21T11:13:18.841Z,0.50
2022-09-21T11:15:55.618Z,0.63
2022-09-21T11:18:31.784Z,0.50
2022-09-21T11:21:03.769Z,0.57
2022-09-21T11:23:42.592Z,0.60
2022-09-21T11:26:16.728Z,0.40
2022-09-21T11:28:50.802Z,0.43
2022-09-21T11:31:42.115Z,0.50
2022-09-21T11:34:26.967Z,0.40
2022-09-21T11:37:09.873Z,0.40
2022-09-21T11:39:48.490Z,0.50
2022-09-21T11:42:29.959Z,0.50
2022-09-21T11:45:02.214Z,0.40
2022-09-21T11:50:47.123Z,0.40
2022-09-21T11:53:35.916Z,0.50
2022-09-21T11:56:31.147Z,0.53
2022-09-21T11:59:12.800Z,0.47
2022-09-21T12:01:55.550Z,0.40
2022-09-21T12:04:42.641Z,0.40
2022-09-21T12:07:30.209Z,0.40
2022-09-21T12:10:13.790Z,0.30
2022-09-21T12:12:50.598Z,0.30
2022-09-21T12:15:25.680Z,0.33
2022-09-21T12:18:02.732Z,0.32
2022-09-21T12:20:39.055Z,0.40
2022-09-21T12:23:14.017Z,0.20
2022-09-21T12:25:47.705Z,0.28
2022-09-21T12:28:22.510Z,0.40
2022-09-21T12:30:59.771Z,0.50
2022-09-21T12:33:36.734Z,0.40
2022-09-21T12:36:09.929Z,0.50
2022-09-21T12:38:44.378Z,0.40
2022-09-21T12:41:17.717Z,0.40
2022-09-21T12:43:49.344Z,0.50
2022-09-21T12:46:22.317Z,0.40
2022-09-21T12:48:51.804Z,0.45
2022-09-21T12:51:26.284Z,0.40
2022-09-21T12:53:56.256Z,0.50
2022-09-21T12:56:34.873Z,0.38
2022-09-21T12:59:19.841Z,0.40
2022-09-21T13:01:57.280Z,0.50
2022-09-21T13:04:49.880Z,0.47
2022-09-21T13:08:14.975Z,0.40
2022-09-21T13:10:49.193Z,0.40
2022-09-21T13:13:31.085Z,0.43
2022-09-21T13:16:00.522Z,0.75
2022-09-21T13:18:35.791Z,0.40
2022-09-21T13:21:19.139Z,0.63
2022-09-21T13:23:54.821Z,0.73
2022-09-21T13:26:36.798Z,0.60
2022-09-21T13:29:30.820Z,0.70
2022-09-21T13:32:00.454Z,0.60
2022-09-21T13:34:30.995Z,0.55
2022-09-21T13:37:35.552Z,0.25
2022-09-21T13:40:40.198Z,0.38
2022-09-21T13:43:33.660Z,0.60
2022-09-21T13:46:01.724Z,0.57
2022-09-21T13:48:30.492Z,0.47
2022-09-21T13:51:01.769Z,0.77
2022-09-21T13:53:35.856Z,0.50
2022-09-21T13:56:09.903Z,0.52
2022-09-21T13:58:45.734Z,0.40
2022-09-21T14:01:45.657Z,0.40
2022-09-21T14:04:22.070Z,0.45
2022-09-21T14:06:52.381Z,0.57
2022-09-21T14:09:25.850Z,0.40
2022-09-21T14:11:59.733Z,0.52
2022-09-21T14:14:32.787Z,0.32
2022-09-21T14:17:01.576Z,0.60
2022-09-21T14:20:09.566Z,0.70
2022-09-21T14:22:45.365Z,0.50
2022-09-21T14:25:51.059Z,0.40
2022-09-21T14:28:26.699Z,0.65
2022-09-21T14:31:01.698Z,0.65
2022-09-21T14:33:42.064Z,0.30
2022-09-21T14:36:15.540Z,0.55
2022-09-21T14:38:52.330Z,0.50
2022-09-21T14:41:24.125Z,0.32
2022-09-21T14:43:54.510Z,0.40
2022-09-21T14:46:59.754Z,0.60
2022-09-21T14:49:45.308Z,0.60
2022-09-21T14:52:32.110Z,0.60
2022-09-21T14:55:16.974Z,0.77
2022-09-21T14:58:14.371Z,0.73
2022-09-21T15:00:43.806Z,1.02
2022-09-21T15:03:37.080Z,7.90
2022-09-21T15:06:29.914Z,11.47
2022-09-21T15:09:34.579Z,9.35
2022-09-21T15:12:09.987Z,8.98
2022-09-21T15:14:42.425Z,5.93
2022-09-21T15:17:25.258Z,1.93
2022-09-21T15:19:59.230Z,1.20
2022-09-21T15:22:28.347Z,0.70
2022-09-21T15:24:59.205Z,0.80
2022-09-21T15:27:33.218Z,0.60
2022-09-21T15:30:03.444Z,0.67
2022-09-21T15:32:37.963Z,0.70
2022-09-21T15:35:17.407Z,0.60
2022-09-21T15:37:46.747Z,0.60
2022-09-21T15:40:21.738Z,0.60
2022-09-21T15:43:01.893Z,0.40
2022-09-21T15:45:33.969Z,0.67
2022-09-21T15:48:03.396Z,0.80
2022-09-21T15:50:33.360Z,0.70
2022-09-21T15:53:06.663Z,0.53
2022-09-21T15:55:34.804Z,0.70
2022-09-21T15:58:04.308Z,0.60
2022-09-21T16:00:39.979Z,0.57
2022-09-21T16:03:18.680Z,0.70
2022-09-21T16:05:50.730Z,0.80
2022-09-21T16:08:28.268Z,0.70
2022-09-21T16:11:17.302Z,0.70
2022-09-21T16:14:04.275Z,0.70
2022-09-21T16:16:32.458Z,0.80
2022-09-21T16:19:01.038Z,0.90
2022-09-21T16:21:33.752Z,0.67
2022-09-21T16:24:12.635Z,0.80
2022-09-21T16:26:41.595Z,0.77
2022-09-21T16:29:23.503Z,0.63
2022-09-21T16:31:51.707Z,0.73
2022-09-21T16:34:24.826Z,0.80
2022-09-21T16:36:54.975Z,1.00
2022-09-21T16:39:23.805Z,0.60
2022-09-21T16:41:55.171Z,0.73
2022-09-21T16:44:25.589Z,0.77
2022-09-21T16:47:04.492Z,0.77
2022-09-21T16:49:35.164Z,0.80
2022-09-21T16:52:07.362Z,0.70
2022-09-21T16:54:37.382Z,0.90
2022-09-21T16:57:07.322Z,0.80
2022-09-21T16:59:36.542Z,0.80
2022-09-21T17:02:05.924Z,0.93
2022-09-21T17:04:35.780Z,0.97
2022-09-21T17:07:06.090Z,1.00
2022-09-21T17:09:35.962Z,0.90
2022-09-21T17:12:06.202Z,0.90
2022-09-21T17:14:35.992Z,0.97
2022-09-21T17:17:08.388Z,0.90
2022-09-21T17:19:36.869Z,1.03
2022-09-21T17:22:07.044Z,1.20
2022-09-21T17:24:50.212Z,0.80
2022-09-21T17:27:20.947Z,1.20
2022-09-21T17:29:49.780Z,1.30
2022-09-21T17:32:20.577Z,1.50
2022-09-21T17:34:53.432Z,1.20
2022-09-21T17:37:24.197Z,1.50
2022-09-21T17:39:53.644Z,1.63
2022-09-21T17:42:24.989Z,2.20
2022-09-21T17:45:01.759Z,2.10
2022-09-21T17:47:33.745Z,2.13
2022-09-21T17:50:17.816Z,1.80
2022-09-21T17:53:04.817Z,1.77
2022-09-21T17:55:33.328Z,1.87
2022-09-21T17:58:11.713Z,1.87
2022-09-21T18:00:46.594Z,1.97
2022-09-21T18:03:22.856Z,1.93
2022-09-21T18:05:52.910Z,2.33
2022-09-21T18:08:22.750Z,2.13
2022-09-21T18:11:01.679Z,2.13
2022-09-21T18:13:38.203Z,2.00
2022-09-21T18:16:30.107Z,1.87
2022-09-21T18:19:05.944Z,1.70
2022-09-21T18:21:40.762Z,1.77
2022-09-21T18:24:21.971Z,2.27
2022-09-21T18:26:50.767Z,2.50
2022-09-21T18:29:39.437Z,2.53
2022-09-21T18:32:26.774Z,3.47
2022-09-21T18:35:10.523Z,2.03
2022-09-21T18:37:48.525Z,2.40
2022-09-21T18:40:25.811Z,2.07
2022-09-21T18:43:00.074Z,2.00
2022-09-21T18:45:31.884Z,2.47
2022-09-21T18:48:21.442Z,2.57
2022-09-21T18:50:57.479Z,2.50
2022-09-21T18:53:33.955Z,2.70
2022-09-21T18:56:05.964Z,4.47
2022-09-21T18:58:34.700Z,6.57
2022-09-21T19:01:04.055Z,6.93
2022-09-21T19:03:32.749Z,6.10
2022-09-21T19:06:20.471Z,5.50
2022-09-21T19:08:56.189Z,5.93
2022-09-21T19:11:34.786Z,5.87
2022-09-21T19:14:12.066Z,5.63
2022-09-21T19:16:48.159Z,5.80
2022-09-21T19:19:29.667Z,5.77
2022-09-21T19:22:02.379Z,5.43
2022-09-21T19:24:37.814Z,5.50
2022-09-21T19:27:18.159Z,5.17
2022-09-21T19:29:57.887Z,5.30
2022-09-21T19:32:39.719Z,4.80
2022-09-21T19:35:20.352Z,4.60
2022-09-21T19:37:48.829Z,3.80
2022-09-21T19:40:18.212Z,3.97
2022-09-21T19:43:01.516Z,4.07
2022-09-21T19:45:39.521Z,4.60
2022-09-21T19:48:12.919Z,4.40
2022-09-21T19:50:47.095Z,4.17
2022-09-21T19:53:33.129Z,4.70
2022-09-21T19:56:19.927Z,4.07
2022-09-21T19:59:07.269Z,3.83
2022-09-21T20:01:42.601Z,3.90
2022-09-21T20:04:14.511Z,2.90
2022-09-21T20:06:47.250Z,2.97
2022-09-21T20:09:20.658Z,3.07
2022-09-21T20:11:55.803Z,2.87
2022-09-21T20:14:34.001Z,2.90
2022-09-21T20:17:09.862Z,3.00
2022-09-21T20:19:47.862Z,3.23
2022-09-21T20:22:17.336Z,3.20
2022-09-21T20:24:52.885Z,3.20
2022-09-21T20:27:34.570Z,2.50
2022-09-21T20:30:05.212Z,2.90
2022-09-21T20:32:34.103Z,2.77
2022-09-21T20:35:02.058Z,2.57
2022-09-21T20:37:30.288Z,3.53
2022-09-21T20:39:58.246Z,7.53
2022-09-21T20:42:26.856Z,4.23
2022-09-21T20:44:55.408Z,3.90
2022-09-21T20:47:24.814Z,3.60
2022-09-21T20:49:52.900Z,3.53
2022-09-21T20:52:20.870Z,3.40
2022-09-21T20:54:49.688Z,3.37
2022-09-21T20:57:18.153Z,3.43
2022-09-21T20:59:46.104Z,3.07
2022-09-21T21:02:15.180Z,3.40
2022-09-21T21:04:44.543Z,3.47
2022-09-21T21:07:12.507Z,3.23
2022-09-21T21:09:40.536Z,3.17
2022-09-21T21:12:09.421Z,3.07
2022-09-21T21:14:37.702Z,3.20
2022-09-21T21:17:06.537Z,2.70
2022-09-21T21:19:34.569Z,3.10
2022-09-21T21:22:03.897Z,2.87
2022-09-21T21:24:44.107Z,2.90
2022-09-21T21:27:16.489Z,3.20
2022-09-21T21:29:46.178Z,3.10
2022-09-21T21:32:14.418Z,5.03
2022-09-21T21:34:42.557Z,3.30
2022-09-21T21:37:13.238Z,3.57
2022-09-21T21:39:41.404Z,3.40
2022-09-21T21:42:09.876Z,3.13
2022-09-21T21:44:37.898Z,3.63
2022-09-21T21:47:27.401Z,3.20
2022-09-21T21:49:54.111Z,2.93
2022-09-21T21:52:23.498Z,3.13
2022-09-21T21:54:51.530Z,3.63
2022-09-21T21:57:19.527Z,3.37
2022-09-21T21:59:47.551Z,3.60
2022-09-21T22:02:15.721Z,3.13
2022-09-21T22:04:43.919Z,2.90
2022-09-21T22:07:11.878Z,2.90
2022-09-21T22:09:41.199Z,2.80
2022-09-21T22:12:10.126Z,2.60
2022-09-21T22:14:38.126Z,2.40
2022-09-21T22:17:06.218Z,3.07
2022-09-21T22:19:34.185Z,2.63
2022-09-21T22:22:02.155Z,2.43
2022-09-21T22:24:30.259Z,2.40
2022-09-21T22:26:59.586Z,2.57
2022-09-21T22:29:27.675Z,2.40
2022-09-21T22:31:55.975Z,2.40
2022-09-21T22:34:24.010Z,2.40
2022-09-21T22:36:52.016Z,2.27
2022-09-21T22:39:19.996Z,2.20
2022-09-21T22:41:47.963Z,2.43
2022-09-21T22:44:17.295Z,2.10
2022-09-21T22:46:45.245Z,2.20
2022-09-21T22:49:13.210Z,2.13
2022-09-21T22:51:41.152Z,2.27
2022-09-21T22:54:09.144Z,2.60
2022-09-21T22:56:37.191Z,2.10
2022-09-21T22:59:06.115Z,2.53
2022-09-21T23:01:37.251Z,2.40
2022-09-21T23:04:06.918Z,2.40
2022-09-21T23:06:36.959Z,2.33
2022-09-21T23:09:07.185Z,2.20
2022-09-21T23:11:37.448Z,2.20
2022-09-21T23:14:06.218Z,1.97
2022-09-21T23:16:35.728Z,1.97
2022-09-21T23:19:03.760Z,2.40
2022-09-21T23:21:32.083Z,2.17
2022-09-21T23:24:02.361Z,1.83
2022-09-21T23:26:32.062Z,2.20
2022-09-21T23:29:02.119Z,2.13
2022-09-21T23:31:31.038Z,2.20
2022-09-21T23:34:03.855Z,1.83
2022-09-21T23:36:32.822Z,2.33
2022-09-21T23:39:00.954Z,2.30
2022-09-21T23:41:30.838Z,2.23
2022-09-21T23:43:59.538Z,2.13
2022-09-21T23:46:32.685Z,2.20
2022-09-21T23:49:03.085Z,2.20
2022-09-21T23:51:31.354Z,2.03
2022-09-21T23:54:00.059Z,2.10
2022-09-21T23:56:29.355Z,2.20
2022-09-21T23:58:57.554Z,1.90
